Terminal Aerodrome Forecast
Issued by NWS Jackson, KY

Home | Current Version | Previous Version | Text Only | Print | Product List | Glossary On
Versions: 1 2 3 4 5 6 7 8 9 10 11 12 13 14 15 16 17 18
000
FTUS43 KJKL 241120
TAFJKL
TAF
KJKL 241120Z 2412/2512 00000KT P6SM OVC003
     FM241500 VRB03KT P6SM VCSH OVC035
     FM241700 VRB03KT P6SM -SHRA OVC040
     FM241800 VRB03KT 3SM SHRA VCTS OVC045CB
     FM250000 23004KT P6SM VCSH BKN070=

USA.gov is the U.S. government's official web portal to all federal, state and local government web resources and services.